ELY551 LLBG-LBSF
Flight info
| Callsign | ELY551 |
|---|---|
| Flight time | 2h 21m |
| Altitude | 34000 |
| Route | SUVAS DCT TEZAK N128 OTHON DCT VAXOS UN128 RDS UL609 MES DCT EVIVI Y94 VANET |
| Aircraft | B738/M-SDE2E3FGHIRWXY/LB1 |
Departure
| Time | 2026-04-30 09:13 |
|---|---|
| Airport | Ben Gurion International Airport (LLBG) |
Arrival
| Time | 2026-04-30 11:35 |
|---|---|
| Airport | Sofia Airport (LBSF) |
| Time | Latitude | Longitude | Altitude | Speed | Heading |
|---|---|---|---|---|---|
| 2026-04-30 08:39 | 32.00260 | 34.87408 | 116 ft | 0 kts | 275° |
| 2026-04-30 08:59 | 32.00259 | 34.87432 | 117 ft | 4 kts | 275° |
| 2026-04-30 08:59 | 32.00256 | 34.87463 | 114 ft | 4 kts | 276° |
| 2026-04-30 08:59 | 32.00253 | 34.87494 | 115 ft | 4 kts | 285° |
| 2026-04-30 09:00 | 32.00243 | 34.87524 | 114 ft | 4 kts | 300° |
| 2026-04-30 09:00 | 32.00228 | 34.87549 | 116 ft | 4 kts | 308° |
| 2026-04-30 09:00 | 32.00215 | 34.87576 | 116 ft | 4 kts | 291° |
| 2026-04-30 09:00 | 32.00203 | 34.87601 | 116 ft | 3 kts | 324° |
| 2026-04-30 09:01 | 32.00184 | 34.87614 | 115 ft | 4 kts | 351° |
| 2026-04-30 09:01 | 32.00158 | 34.87611 | 115 ft | 4 kts | 26° |
| 2026-04-30 09:01 | 32.00137 | 34.87597 | 114 ft | 4 kts | 31° |
| 2026-04-30 09:01 | 32.00114 | 34.87580 | 114 ft | 4 kts | 32° |
| 2026-04-30 09:02 | 32.00105 | 34.87573 | 118 ft | 0 kts | 31° |
| 2026-04-30 09:06 | 32.00111 | 34.87578 | 114 ft | 6 kts | 32° |
| 2026-04-30 09:06 | 32.00145 | 34.87603 | 118 ft | 14 kts | 31° |
| 2026-04-30 09:06 | 32.00243 | 34.87674 | 115 ft | 17 kts | 31° |
| 2026-04-30 09:06 | 32.00341 | 34.87743 | 117 ft | 16 kts | 31° |
| 2026-04-30 09:07 | 32.00435 | 34.87810 | 117 ft | 15 kts | 31° |
| 2026-04-30 09:07 | 32.00525 | 34.87873 | 117 ft | 15 kts | 30° |
| 2026-04-30 09:07 | 32.00612 | 34.87935 | 116 ft | 14 kts | 31° |
| 2026-04-30 09:07 | 32.00694 | 34.87993 | 118 ft | 14 kts | 31° |
| 2026-04-30 09:08 | 32.00773 | 34.88051 | 116 ft | 13 kts | 33° |
| 2026-04-30 09:08 | 32.00848 | 34.88109 | 117 ft | 13 kts | 33° |
| 2026-04-30 09:08 | 32.00922 | 34.88164 | 119 ft | 12 kts | 31° |
| 2026-04-30 09:08 | 32.00995 | 34.88215 | 117 ft | 14 kts | 31° |
| 2026-04-30 09:09 | 32.01113 | 34.88296 | 116 ft | 24 kts | 31° |
| 2026-04-30 09:09 | 32.01251 | 34.88401 | 117 ft | 23 kts | 32° |
| 2026-04-30 09:09 | 32.01366 | 34.88526 | 117 ft | 22 kts | 49° |
| 2026-04-30 09:09 | 32.01447 | 34.88674 | 118 ft | 22 kts | 64° |
| 2026-04-30 09:10 | 32.01495 | 34.88840 | 117 ft | 21 kts | 78° |
| 2026-04-30 09:10 | 32.01513 | 34.88953 | 117 ft | 21 kts | 80° |
| 2026-04-30 09:10 | 32.01540 | 34.89119 | 119 ft | 10 kts | 71° |
| 2026-04-30 09:10 | 32.01587 | 34.89161 | 117 ft | 8 kts | 7° |
| 2026-04-30 09:11 | 32.01623 | 34.89156 | 116 ft | 7 kts | 349° |
| 2026-04-30 09:11 | 32.01671 | 34.89146 | 115 ft | 7 kts | 350° |
| 2026-04-30 09:11 | 32.01716 | 34.89135 | 116 ft | 6 kts | 343° |
| 2026-04-30 09:11 | 32.01740 | 34.89108 | 117 ft | 4 kts | 297° |
| 2026-04-30 09:12 | 32.01744 | 34.89089 | 118 ft | 2 kts | 275° |
| 2026-04-30 09:12 | 32.01743 | 34.89080 | 118 ft | 0 kts | 262° |
| 2026-04-30 09:12 | 32.01740 | 34.89052 | 118 ft | 16 kts | 262° |
| 2026-04-30 09:13 | 32.01676 | 34.88631 | 120 ft | 88 kts | 261° |
| 2026-04-30 09:13 | 32.01525 | 34.87662 | 120 ft | 150 kts | 260° |
| 2026-04-30 09:13 | 32.01304 | 34.86270 | 300 ft | 188 kts | 264° |
| 2026-04-30 09:13 | 32.01076 | 34.84680 | 829 ft | 206 kts | 264° |
| 2026-04-30 09:14 | 32.00912 | 34.82973 | 1166 ft | 212 kts | 264° |
| 2026-04-30 09:14 | 32.00526 | 34.81356 | 1922 ft | 201 kts | 252° |
| 2026-04-30 09:14 | 32.00092 | 34.79712 | 2217 ft | 222 kts | 254° |
| 2026-04-30 09:14 | 31.99672 | 34.77893 | 2491 ft | 238 kts | 255° |
| 2026-04-30 09:15 | 31.99248 | 34.75930 | 2771 ft | 259 kts | 259° |
| 2026-04-30 09:15 | 31.99395 | 34.73802 | 3372 ft | 267 kts | 289° |
| 2026-04-30 09:15 | 32.00087 | 34.71756 | 4138 ft | 270 kts | 289° |
| 2026-04-30 09:15 | 32.00754 | 34.69685 | 4870 ft | 272 kts | 289° |
| 2026-04-30 09:16 | 32.01419 | 34.67577 | 5493 ft | 277 kts | 288° |
| 2026-04-30 09:16 | 32.02085 | 34.65444 | 6225 ft | 278 kts | 288° |
| 2026-04-30 09:16 | 32.02700 | 34.63316 | 6878 ft | 279 kts | 282° |
| 2026-04-30 09:16 | 32.03170 | 34.61093 | 7522 ft | 281 kts | 282° |
| 2026-04-30 09:17 | 32.03674 | 34.58851 | 8172 ft | 284 kts | 283° |
| 2026-04-30 09:17 | 32.04186 | 34.56597 | 8823 ft | 286 kts | 283° |
| 2026-04-30 09:17 | 32.04703 | 34.54313 | 9478 ft | 289 kts | 283° |
| 2026-04-30 09:17 | 32.05222 | 34.52017 | 10125 ft | 291 kts | 282° |
| 2026-04-30 09:18 | 32.05752 | 34.49657 | 10438 ft | 307 kts | 283° |
| 2026-04-30 09:18 | 32.06313 | 34.47148 | 10592 ft | 326 kts | 283° |
| 2026-04-30 09:18 | 32.06908 | 34.44481 | 10728 ft | 345 kts | 283° |
| 2026-04-30 09:18 | 32.07532 | 34.41684 | 11002 ft | 358 kts | 283° |
| 2026-04-30 09:19 | 32.08170 | 34.38828 | 11512 ft | 363 kts | 284° |
| 2026-04-30 09:19 | 32.08813 | 34.35943 | 12151 ft | 363 kts | 284° |
| 2026-04-30 09:19 | 32.09457 | 34.33053 | 12799 ft | 365 kts | 284° |
| 2026-04-30 09:19 | 32.10099 | 34.30160 | 13426 ft | 367 kts | 284° |
| 2026-04-30 09:20 | 32.10748 | 34.27234 | 14028 ft | 370 kts | 284° |
| 2026-04-30 09:20 | 32.11407 | 34.24259 | 14623 ft | 372 kts | 284° |
| 2026-04-30 09:20 | 32.12052 | 34.21339 | 15223 ft | 374 kts | 284° |
| 2026-04-30 09:20 | 32.12710 | 34.18362 | 15808 ft | 376 kts | 284° |
| 2026-04-30 09:21 | 32.13369 | 34.15372 | 16390 ft | 379 kts | 284° |
| 2026-04-30 09:21 | 32.14035 | 34.12349 | 16995 ft | 381 kts | 284° |
| 2026-04-30 09:21 | 32.14703 | 34.09317 | 17583 ft | 383 kts | 284° |
| 2026-04-30 09:21 | 32.15374 | 34.06264 | 18153 ft | 386 kts | 284° |
| 2026-04-30 09:22 | 32.16051 | 34.03181 | 18679 ft | 388 kts | 284° |
| 2026-04-30 09:22 | 32.16852 | 34.00150 | 19202 ft | 389 kts | 292° |
| 2026-04-30 09:22 | 32.18059 | 33.97285 | 19752 ft | 390 kts | 301° |
| 2026-04-30 09:22 | 32.19602 | 33.94643 | 20294 ft | 391 kts | 304° |
| 2026-04-30 09:23 | 32.21194 | 33.92033 | 20791 ft | 393 kts | 304° |
| 2026-04-30 09:23 | 32.22802 | 33.89412 | 21276 ft | 395 kts | 304° |
| 2026-04-30 09:23 | 32.24412 | 33.86782 | 21790 ft | 396 kts | 304° |
| 2026-04-30 09:23 | 32.26022 | 33.84138 | 22269 ft | 397 kts | 304° |
| 2026-04-30 09:24 | 32.27631 | 33.81483 | 22728 ft | 399 kts | 304° |
| 2026-04-30 09:24 | 32.29249 | 33.78802 | 23130 ft | 402 kts | 304° |
| 2026-04-30 09:24 | 32.30872 | 33.76106 | 23594 ft | 403 kts | 304° |
| 2026-04-30 09:24 | 32.32499 | 33.73397 | 23999 ft | 404 kts | 303° |
| 2026-04-30 09:25 | 32.34130 | 33.70680 | 24373 ft | 405 kts | 303° |
| 2026-04-30 09:25 | 32.35763 | 33.67955 | 24730 ft | 407 kts | 303° |
| 2026-04-30 09:25 | 32.37397 | 33.65226 | 25102 ft | 408 kts | 303° |
| 2026-04-30 09:25 | 32.39039 | 33.62484 | 25461 ft | 409 kts | 303° |
| 2026-04-30 09:26 | 32.40688 | 33.59726 | 25797 ft | 411 kts | 303° |
| 2026-04-30 09:26 | 32.42339 | 33.56964 | 26127 ft | 412 kts | 303° |
| 2026-04-30 09:26 | 32.43995 | 33.54190 | 26445 ft | 414 kts | 303° |
| 2026-04-30 09:26 | 32.45661 | 33.51399 | 26760 ft | 415 kts | 303° |
| 2026-04-30 09:27 | 32.47328 | 33.48603 | 27071 ft | 417 kts | 303° |
| 2026-04-30 09:27 | 32.49006 | 33.45788 | 27382 ft | 418 kts | 303° |
| 2026-04-30 09:27 | 32.50685 | 33.42967 | 27678 ft | 420 kts | 303° |
| 2026-04-30 09:27 | 32.52370 | 33.40135 | 27959 ft | 421 kts | 303° |
| 2026-04-30 09:28 | 32.54059 | 33.37296 | 28277 ft | 422 kts | 303° |
| 2026-04-30 09:28 | 32.55746 | 33.34457 | 28687 ft | 420 kts | 303° |
| 2026-04-30 09:28 | 32.57425 | 33.31629 | 29163 ft | 417 kts | 303° |
| 2026-04-30 09:28 | 32.59089 | 33.28826 | 29624 ft | 415 kts | 303° |
| 2026-04-30 09:29 | 32.60747 | 33.26030 | 30029 ft | 414 kts | 303° |
| 2026-04-30 09:29 | 32.62377 | 33.23277 | 30373 ft | 413 kts | 303° |
| 2026-04-30 09:29 | 32.64026 | 33.20492 | 30685 ft | 412 kts | 303° |
| 2026-04-30 09:29 | 32.65691 | 33.17677 | 31000 ft | 411 kts | 303° |
| 2026-04-30 09:30 | 32.67328 | 33.14906 | 31306 ft | 410 kts | 303° |
| 2026-04-30 09:30 | 32.68943 | 33.12172 | 31604 ft | 409 kts | 303° |
| 2026-04-30 09:30 | 32.70570 | 33.09415 | 31917 ft | 408 kts | 303° |
| 2026-04-30 09:30 | 32.72197 | 33.06656 | 32227 ft | 407 kts | 303° |
| 2026-04-30 09:31 | 32.73821 | 33.03901 | 32409 ft | 409 kts | 303° |
| 2026-04-30 09:31 | 32.75458 | 33.01119 | 32584 ft | 411 kts | 303° |
| 2026-04-30 09:31 | 32.77093 | 32.98341 | 32908 ft | 409 kts | 303° |
| 2026-04-30 09:31 | 32.78719 | 32.95576 | 33249 ft | 407 kts | 303° |
| 2026-04-30 09:32 | 32.80337 | 32.92823 | 33536 ft | 406 kts | 303° |
| 2026-04-30 09:32 | 32.81953 | 32.90071 | 33766 ft | 406 kts | 303° |
| 2026-04-30 09:32 | 32.83568 | 32.87318 | 34029 ft | 405 kts | 303° |
| 2026-04-30 09:32 | 32.85183 | 32.84563 | 34066 ft | 408 kts | 303° |
| 2026-04-30 09:33 | 32.88421 | 32.79033 | 34070 ft | 405 kts | 303° |
| 2026-04-30 09:33 | 32.91628 | 32.73550 | 34074 ft | 402 kts | 303° |
| 2026-04-30 09:34 | 32.94809 | 32.68102 | 34077 ft | 400 kts | 302° |
| 2026-04-30 09:34 | 32.97979 | 32.62664 | 34077 ft | 399 kts | 302° |
| 2026-04-30 09:35 | 33.01142 | 32.57231 | 34086 ft | 399 kts | 303° |
| 2026-04-30 09:35 | 33.04310 | 32.51780 | 34080 ft | 401 kts | 303° |
| 2026-04-30 09:36 | 33.07486 | 32.46309 | 34084 ft | 403 kts | 303° |
| 2026-04-30 09:36 | 33.10679 | 32.40800 | 34082 ft | 405 kts | 302° |
| 2026-04-30 09:37 | 33.13886 | 32.35258 | 34079 ft | 407 kts | 302° |
| 2026-04-30 09:37 | 33.17102 | 32.29694 | 34081 ft | 408 kts | 302° |
| 2026-04-30 09:38 | 33.20325 | 32.24108 | 34082 ft | 409 kts | 303° |
| 2026-04-30 09:38 | 33.23546 | 32.18517 | 34075 ft | 409 kts | 303° |
| 2026-04-30 09:39 | 33.26743 | 32.12960 | 34075 ft | 408 kts | 303° |
| 2026-04-30 09:39 | 33.29952 | 32.07374 | 34084 ft | 407 kts | 302° |
| 2026-04-30 09:40 | 33.33169 | 32.01766 | 34077 ft | 406 kts | 303° |
| 2026-04-30 09:40 | 33.36337 | 31.96233 | 34072 ft | 405 kts | 303° |
| 2026-04-30 09:41 | 33.39511 | 31.90681 | 34072 ft | 404 kts | 302° |
| 2026-04-30 09:41 | 33.42677 | 31.85135 | 34074 ft | 403 kts | 302° |
| 2026-04-30 09:42 | 33.45835 | 31.79597 | 34077 ft | 403 kts | 302° |
| 2026-04-30 09:42 | 33.48987 | 31.74063 | 34077 ft | 402 kts | 302° |
| 2026-04-30 09:43 | 33.52139 | 31.68526 | 34074 ft | 402 kts | 302° |
| 2026-04-30 09:43 | 33.55283 | 31.62992 | 34071 ft | 402 kts | 302° |
| 2026-04-30 09:44 | 33.58427 | 31.57449 | 34073 ft | 402 kts | 302° |
| 2026-04-30 09:44 | 33.61570 | 31.51900 | 34071 ft | 402 kts | 302° |
| 2026-04-30 09:45 | 33.64715 | 31.46339 | 34086 ft | 403 kts | 302° |
| 2026-04-30 09:45 | 33.67867 | 31.40756 | 34074 ft | 404 kts | 302° |
| 2026-04-30 09:46 | 33.71022 | 31.35160 | 34074 ft | 405 kts | 302° |
| 2026-04-30 09:46 | 33.74178 | 31.29554 | 34073 ft | 405 kts | 302° |
| 2026-04-30 09:47 | 33.77333 | 31.23939 | 34070 ft | 406 kts | 302° |
| 2026-04-30 09:47 | 33.80471 | 31.18347 | 34071 ft | 406 kts | 302° |
| 2026-04-30 09:48 | 33.83623 | 31.12721 | 34071 ft | 406 kts | 302° |
| 2026-04-30 09:48 | 33.86776 | 31.07086 | 34067 ft | 405 kts | 302° |
| 2026-04-30 09:49 | 33.89918 | 31.01459 | 34072 ft | 405 kts | 302° |
| 2026-04-30 09:49 | 33.93057 | 30.95832 | 34067 ft | 404 kts | 302° |
| 2026-04-30 09:50 | 33.96187 | 30.90210 | 34065 ft | 404 kts | 302° |
| 2026-04-30 09:50 | 33.99311 | 30.84587 | 34073 ft | 403 kts | 302° |
| 2026-04-30 09:51 | 34.02429 | 30.78965 | 34069 ft | 403 kts | 302° |
| 2026-04-30 09:51 | 34.05538 | 30.73349 | 34067 ft | 403 kts | 302° |
| 2026-04-30 09:52 | 34.08643 | 30.67730 | 34084 ft | 403 kts | 302° |
| 2026-04-30 09:52 | 34.11749 | 30.62103 | 34058 ft | 403 kts | 302° |
| 2026-04-30 09:53 | 34.14849 | 30.56478 | 34075 ft | 403 kts | 302° |
| 2026-04-30 09:53 | 34.17954 | 30.50834 | 34070 ft | 403 kts | 302° |
| 2026-04-30 09:54 | 34.21055 | 30.45189 | 34070 ft | 403 kts | 302° |
| 2026-04-30 09:54 | 34.24135 | 30.39572 | 34055 ft | 404 kts | 302° |
| 2026-04-30 09:55 | 34.27256 | 30.33874 | 34057 ft | 404 kts | 302° |
| 2026-04-30 09:55 | 34.30334 | 30.28243 | 34075 ft | 404 kts | 302° |
| 2026-04-30 09:56 | 34.33447 | 30.22540 | 34065 ft | 403 kts | 302° |
| 2026-04-30 09:56 | 34.36015 | 30.17829 | 34053 ft | 403 kts | 302° |
| 2026-04-30 09:57 | 34.39097 | 30.12165 | 34055 ft | 403 kts | 302° |
| 2026-04-30 09:57 | 34.42677 | 30.05577 | 34056 ft | 403 kts | 302° |
| 2026-04-30 09:58 | 34.45267 | 30.00838 | 34061 ft | 403 kts | 304° |
| 2026-04-30 09:58 | 34.49035 | 29.95801 | 34080 ft | 404 kts | 313° |
| 2026-04-30 09:59 | 34.56945 | 29.86136 | 34063 ft | 403 kts | 312° |
| 2026-04-30 10:00 | 34.62847 | 29.78843 | 34075 ft | 403 kts | 312° |
| 2026-04-30 10:01 | 34.68698 | 29.71591 | 34059 ft | 402 kts | 312° |
| 2026-04-30 10:02 | 34.74569 | 29.64298 | 34055 ft | 402 kts | 312° |
| 2026-04-30 10:02 | 34.78470 | 29.59444 | 34067 ft | 402 kts | 312° |
| 2026-04-30 10:03 | 34.82369 | 29.54585 | 34075 ft | 401 kts | 312° |
| 2026-04-30 10:03 | 34.86275 | 29.49710 | 34063 ft | 402 kts | 312° |
| 2026-04-30 10:04 | 34.90174 | 29.44837 | 34060 ft | 402 kts | 312° |
| 2026-04-30 10:04 | 34.94073 | 29.39956 | 34060 ft | 402 kts | 312° |
| 2026-04-30 10:05 | 34.97969 | 29.35074 | 34055 ft | 402 kts | 312° |
| 2026-04-30 10:05 | 35.02227 | 29.30630 | 34063 ft | 405 kts | 320° |
| 2026-04-30 10:06 | 35.06767 | 29.26546 | 34056 ft | 405 kts | 321° |
| 2026-04-30 10:06 | 35.11297 | 29.22452 | 34052 ft | 405 kts | 320° |
| 2026-04-30 10:07 | 35.15795 | 29.18356 | 34075 ft | 405 kts | 320° |
| 2026-04-30 10:07 | 35.20317 | 29.14220 | 34062 ft | 405 kts | 320° |
| 2026-04-30 10:08 | 35.24829 | 29.10084 | 34052 ft | 406 kts | 320° |
| 2026-04-30 10:08 | 35.29357 | 29.05927 | 34056 ft | 406 kts | 320° |
| 2026-04-30 10:09 | 35.33869 | 29.01779 | 34058 ft | 406 kts | 320° |
| 2026-04-30 10:09 | 35.38390 | 28.97618 | 34054 ft | 406 kts | 320° |
| 2026-04-30 10:10 | 35.42907 | 28.93453 | 34055 ft | 406 kts | 320° |
| 2026-04-30 10:10 | 35.47426 | 28.89282 | 34050 ft | 407 kts | 320° |
| 2026-04-30 10:11 | 35.51948 | 28.85101 | 34057 ft | 407 kts | 320° |
| 2026-04-30 10:11 | 35.56471 | 28.80913 | 34050 ft | 407 kts | 320° |
| 2026-04-30 10:12 | 35.60990 | 28.76722 | 34052 ft | 407 kts | 320° |
| 2026-04-30 10:12 | 35.65511 | 28.72525 | 34054 ft | 407 kts | 320° |
| 2026-04-30 10:13 | 35.70030 | 28.68323 | 34050 ft | 407 kts | 320° |
| 2026-04-30 10:13 | 35.74553 | 28.64110 | 34063 ft | 407 kts | 320° |
| 2026-04-30 10:14 | 35.79075 | 28.59892 | 34052 ft | 408 kts | 320° |
| 2026-04-30 10:14 | 35.85837 | 28.53574 | 34045 ft | 409 kts | 320° |
| 2026-04-30 10:15 | 35.90363 | 28.49337 | 34053 ft | 409 kts | 320° |
| 2026-04-30 10:15 | 35.94930 | 28.45055 | 34053 ft | 409 kts | 320° |
| 2026-04-30 10:16 | 35.99436 | 28.40825 | 34045 ft | 410 kts | 320° |
| 2026-04-30 10:17 | 36.06271 | 28.34401 | 34033 ft | 410 kts | 320° |
| 2026-04-30 10:17 | 36.13079 | 28.27993 | 34038 ft | 410 kts | 320° |
| 2026-04-30 10:18 | 36.17618 | 28.23710 | 34026 ft | 411 kts | 320° |
| 2026-04-30 10:19 | 36.24439 | 28.17264 | 34026 ft | 411 kts | 320° |
| 2026-04-30 10:19 | 36.28989 | 28.12955 | 34019 ft | 411 kts | 320° |
| 2026-04-30 10:20 | 36.33532 | 28.08646 | 34031 ft | 411 kts | 319° |
| 2026-04-30 10:20 | 36.39883 | 28.01521 | 34025 ft | 411 kts | 314° |
| 2026-04-30 10:21 | 36.44017 | 27.96687 | 34022 ft | 411 kts | 314° |
| 2026-04-30 10:21 | 36.48217 | 27.91800 | 34021 ft | 411 kts | 315° |
| 2026-04-30 10:22 | 36.52373 | 27.86977 | 34022 ft | 411 kts | 315° |
| 2026-04-30 10:22 | 36.56582 | 27.82092 | 34025 ft | 411 kts | 315° |
| 2026-04-30 10:23 | 36.60768 | 27.77229 | 34031 ft | 412 kts | 315° |
| 2026-04-30 10:23 | 36.64950 | 27.72361 | 34024 ft | 412 kts | 315° |
| 2026-04-30 10:24 | 36.69142 | 27.67474 | 34029 ft | 412 kts | 315° |
| 2026-04-30 10:24 | 36.73294 | 27.62627 | 34026 ft | 412 kts | 314° |
| 2026-04-30 10:25 | 36.77466 | 27.57748 | 34037 ft | 411 kts | 314° |
| 2026-04-30 10:25 | 36.81645 | 27.52853 | 34028 ft | 412 kts | 314° |
| 2026-04-30 10:26 | 36.85816 | 27.47960 | 34030 ft | 412 kts | 314° |
| 2026-04-30 10:26 | 36.89995 | 27.43050 | 34037 ft | 412 kts | 314° |
| 2026-04-30 10:27 | 36.94168 | 27.38139 | 34047 ft | 412 kts | 314° |
| 2026-04-30 10:27 | 36.98347 | 27.33213 | 34035 ft | 413 kts | 314° |
| 2026-04-30 10:28 | 37.02521 | 27.28286 | 34040 ft | 413 kts | 314° |
| 2026-04-30 10:28 | 37.06702 | 27.23342 | 34038 ft | 413 kts | 314° |
| 2026-04-30 10:29 | 37.10880 | 27.18394 | 34036 ft | 413 kts | 314° |
| 2026-04-30 10:29 | 37.15054 | 27.13442 | 34038 ft | 414 kts | 314° |
| 2026-04-30 10:30 | 37.19230 | 27.08481 | 34038 ft | 413 kts | 314° |
| 2026-04-30 10:30 | 37.23404 | 27.03513 | 34038 ft | 413 kts | 314° |
| 2026-04-30 10:31 | 37.27574 | 26.98543 | 34040 ft | 414 kts | 314° |
| 2026-04-30 10:31 | 37.31748 | 26.93559 | 34040 ft | 414 kts | 314° |
| 2026-04-30 10:32 | 37.35917 | 26.88573 | 34036 ft | 414 kts | 314° |
| 2026-04-30 10:32 | 37.40088 | 26.83588 | 34034 ft | 414 kts | 314° |
| 2026-04-30 10:33 | 37.44436 | 26.78816 | 34035 ft | 415 kts | 317° |
| 2026-04-30 10:33 | 37.48853 | 26.74130 | 34030 ft | 416 kts | 317° |
| 2026-04-30 10:34 | 37.53257 | 26.69412 | 34033 ft | 416 kts | 316° |
| 2026-04-30 10:34 | 37.57647 | 26.64670 | 34031 ft | 416 kts | 316° |
| 2026-04-30 10:35 | 37.62035 | 26.59917 | 34032 ft | 416 kts | 316° |
| 2026-04-30 10:35 | 37.66423 | 26.55158 | 34032 ft | 416 kts | 316° |
| 2026-04-30 10:36 | 37.70804 | 26.50395 | 34037 ft | 416 kts | 316° |
| 2026-04-30 10:36 | 37.75177 | 26.45618 | 34041 ft | 415 kts | 316° |
| 2026-04-30 10:37 | 37.79545 | 26.40837 | 34040 ft | 415 kts | 316° |
| 2026-04-30 10:37 | 37.83906 | 26.36058 | 34054 ft | 415 kts | 316° |
| 2026-04-30 10:38 | 37.88272 | 26.31271 | 34042 ft | 415 kts | 316° |
| 2026-04-30 10:38 | 37.92608 | 26.26525 | 34041 ft | 415 kts | 316° |
| 2026-04-30 10:39 | 37.96968 | 26.21745 | 34038 ft | 414 kts | 316° |
| 2026-04-30 10:39 | 38.01321 | 26.16963 | 34039 ft | 414 kts | 316° |
| 2026-04-30 10:40 | 38.05671 | 26.12176 | 34043 ft | 414 kts | 316° |
| 2026-04-30 10:40 | 38.10024 | 26.07381 | 34043 ft | 414 kts | 316° |
| 2026-04-30 10:41 | 38.14367 | 26.02590 | 34049 ft | 414 kts | 316° |
| 2026-04-30 10:41 | 38.18007 | 25.98567 | 34051 ft | 414 kts | 316° |
| 2026-04-30 10:42 | 38.22354 | 25.93757 | 34048 ft | 415 kts | 316° |
| 2026-04-30 10:42 | 38.26912 | 25.89212 | 34041 ft | 419 kts | 326° |
| 2026-04-30 10:43 | 38.31973 | 25.85505 | 34048 ft | 420 kts | 327° |
| 2026-04-30 10:43 | 38.37049 | 25.81816 | 34045 ft | 420 kts | 326° |
| 2026-04-30 10:44 | 38.42122 | 25.78090 | 34048 ft | 420 kts | 326° |
| 2026-04-30 10:44 | 38.47177 | 25.74349 | 34047 ft | 420 kts | 326° |
| 2026-04-30 10:45 | 38.52228 | 25.70596 | 34041 ft | 420 kts | 326° |
| 2026-04-30 10:45 | 38.57288 | 25.66830 | 34045 ft | 420 kts | 326° |
| 2026-04-30 10:46 | 38.62335 | 25.63068 | 34051 ft | 420 kts | 326° |
| 2026-04-30 10:46 | 38.67360 | 25.59316 | 34053 ft | 420 kts | 326° |
| 2026-04-30 10:47 | 38.72440 | 25.55517 | 34050 ft | 420 kts | 326° |
| 2026-04-30 10:47 | 38.77480 | 25.51741 | 34049 ft | 419 kts | 326° |
| 2026-04-30 10:48 | 38.82472 | 25.47996 | 34045 ft | 418 kts | 326° |
| 2026-04-30 10:48 | 38.87492 | 25.44223 | 34050 ft | 418 kts | 326° |
| 2026-04-30 10:49 | 38.92496 | 25.40456 | 34056 ft | 417 kts | 326° |
| 2026-04-30 10:49 | 38.97508 | 25.36676 | 34050 ft | 417 kts | 326° |
| 2026-04-30 10:50 | 39.02505 | 25.32902 | 34063 ft | 416 kts | 326° |
| 2026-04-30 10:50 | 39.07495 | 25.29127 | 34055 ft | 416 kts | 325° |
| 2026-04-30 10:51 | 39.12483 | 25.25346 | 34054 ft | 415 kts | 325° |
| 2026-04-30 10:51 | 39.17456 | 25.21572 | 34066 ft | 415 kts | 325° |
| 2026-04-30 10:52 | 39.22433 | 25.17787 | 34054 ft | 415 kts | 325° |
| 2026-04-30 10:52 | 39.27389 | 25.14013 | 34059 ft | 414 kts | 325° |
| 2026-04-30 10:53 | 39.32346 | 25.10231 | 34059 ft | 413 kts | 325° |
| 2026-04-30 10:53 | 39.37290 | 25.06453 | 34060 ft | 413 kts | 325° |
| 2026-04-30 10:54 | 39.42231 | 25.02671 | 34072 ft | 412 kts | 325° |
| 2026-04-30 10:54 | 39.47169 | 24.98885 | 34068 ft | 412 kts | 325° |
| 2026-04-30 10:55 | 39.52104 | 24.95094 | 34061 ft | 413 kts | 325° |
| 2026-04-30 10:55 | 39.57041 | 24.91296 | 34060 ft | 412 kts | 325° |
| 2026-04-30 10:56 | 39.61976 | 24.87495 | 34060 ft | 412 kts | 325° |
| 2026-04-30 10:56 | 39.66824 | 24.83752 | 34074 ft | 412 kts | 325° |
| 2026-04-30 10:57 | 39.71762 | 24.79934 | 34072 ft | 412 kts | 325° |
| 2026-04-30 10:57 | 39.76680 | 24.76126 | 34078 ft | 412 kts | 325° |
| 2026-04-30 10:58 | 39.81604 | 24.72306 | 34077 ft | 412 kts | 325° |
| 2026-04-30 10:58 | 39.86525 | 24.68482 | 34067 ft | 412 kts | 325° |
| 2026-04-30 10:59 | 39.91453 | 24.64646 | 34082 ft | 412 kts | 325° |
| 2026-04-30 10:59 | 39.96382 | 24.60803 | 34074 ft | 412 kts | 325° |
| 2026-04-30 11:00 | 40.01304 | 24.56959 | 34076 ft | 412 kts | 325° |
| 2026-04-30 11:00 | 40.06221 | 24.53113 | 34079 ft | 412 kts | 325° |
| 2026-04-30 11:01 | 40.11140 | 24.49258 | 34079 ft | 412 kts | 325° |
| 2026-04-30 11:01 | 40.16047 | 24.45406 | 34079 ft | 412 kts | 324° |
| 2026-04-30 11:02 | 40.20951 | 24.41549 | 34081 ft | 411 kts | 324° |
| 2026-04-30 11:02 | 40.25854 | 24.37687 | 34088 ft | 411 kts | 324° |
| 2026-04-30 11:03 | 40.30751 | 24.33824 | 34073 ft | 411 kts | 324° |
| 2026-04-30 11:04 | 40.38086 | 24.28024 | 34075 ft | 410 kts | 324° |
| 2026-04-30 11:04 | 40.42969 | 24.24155 | 34081 ft | 410 kts | 324° |
| 2026-04-30 11:05 | 40.47836 | 24.20291 | 34080 ft | 409 kts | 324° |
| 2026-04-30 11:05 | 40.52670 | 24.16447 | 34080 ft | 408 kts | 324° |
| 2026-04-30 11:06 | 40.57536 | 24.12571 | 34076 ft | 408 kts | 324° |
| 2026-04-30 11:06 | 40.62381 | 24.08706 | 34074 ft | 407 kts | 324° |
| 2026-04-30 11:07 | 40.67226 | 24.04833 | 34077 ft | 407 kts | 323° |
| 2026-04-30 11:07 | 40.72093 | 24.00936 | 34074 ft | 407 kts | 323° |
| 2026-04-30 11:08 | 40.76892 | 23.97088 | 34075 ft | 406 kts | 323° |
| 2026-04-30 11:08 | 40.81714 | 23.93214 | 34069 ft | 406 kts | 323° |
| 2026-04-30 11:09 | 40.86536 | 23.89333 | 34074 ft | 406 kts | 323° |
| 2026-04-30 11:09 | 40.91366 | 23.85439 | 34073 ft | 407 kts | 323° |
| 2026-04-30 11:10 | 40.96192 | 23.81542 | 34065 ft | 406 kts | 323° |
| 2026-04-30 11:10 | 41.01016 | 23.77639 | 34067 ft | 406 kts | 323° |
| 2026-04-30 11:11 | 41.05837 | 23.73732 | 34061 ft | 406 kts | 323° |
| 2026-04-30 11:11 | 41.10655 | 23.69821 | 34056 ft | 406 kts | 323° |
| 2026-04-30 11:12 | 41.15470 | 23.65905 | 34064 ft | 404 kts | 322° |
| 2026-04-30 11:12 | 41.17835 | 23.63985 | 34001 ft | 393 kts | 322° |
| 2026-04-30 11:12 | 41.20133 | 23.62117 | 33759 ft | 383 kts | 322° |
| 2026-04-30 11:12 | 41.22377 | 23.60291 | 33465 ft | 376 kts | 322° |
| 2026-04-30 11:13 | 41.24597 | 23.58496 | 33103 ft | 373 kts | 324° |
| 2026-04-30 11:13 | 41.27029 | 23.57119 | 32561 ft | 383 kts | 336° |
| 2026-04-30 11:13 | 41.29620 | 23.56312 | 32123 ft | 389 kts | 344° |
| 2026-04-30 11:13 | 41.32313 | 23.55890 | 31780 ft | 387 kts | 346° |
| 2026-04-30 11:14 | 41.34978 | 23.55512 | 31425 ft | 385 kts | 346° |
| 2026-04-30 11:14 | 41.37632 | 23.55141 | 31054 ft | 382 kts | 345° |
| 2026-04-30 11:14 | 41.40264 | 23.54765 | 30657 ft | 380 kts | 345° |
| 2026-04-30 11:14 | 41.42887 | 23.54383 | 30304 ft | 377 kts | 344° |
| 2026-04-30 11:15 | 41.45478 | 23.53998 | 29929 ft | 374 kts | 344° |
| 2026-04-30 11:15 | 41.48066 | 23.53608 | 29508 ft | 372 kts | 344° |
| 2026-04-30 11:15 | 41.50622 | 23.53220 | 29135 ft | 368 kts | 344° |
| 2026-04-30 11:15 | 41.53156 | 23.52834 | 28768 ft | 365 kts | 344° |
| 2026-04-30 11:16 | 41.55667 | 23.52451 | 28422 ft | 361 kts | 343° |
| 2026-04-30 11:16 | 41.58152 | 23.52070 | 28040 ft | 359 kts | 343° |
| 2026-04-30 11:16 | 41.60626 | 23.51692 | 27652 ft | 357 kts | 345° |
| 2026-04-30 11:16 | 41.63146 | 23.51669 | 27085 ft | 372 kts | 357° |
| 2026-04-30 11:17 | 41.65731 | 23.52346 | 26551 ft | 385 kts | 8° |
| 2026-04-30 11:17 | 41.68280 | 23.53518 | 26164 ft | 386 kts | 11° |
| 2026-04-30 11:17 | 41.70797 | 23.54734 | 25796 ft | 383 kts | 11° |
| 2026-04-30 11:17 | 41.73298 | 23.55941 | 25439 ft | 381 kts | 11° |
| 2026-04-30 11:18 | 41.75782 | 23.57133 | 25098 ft | 378 kts | 11° |
| 2026-04-30 11:18 | 41.80738 | 23.59491 | 24316 ft | 377 kts | 11° |
| 2026-04-30 11:18 | 41.83200 | 23.60657 | 23961 ft | 375 kts | 11° |
| 2026-04-30 11:19 | 41.85657 | 23.61818 | 23636 ft | 373 kts | 11° |
| 2026-04-30 11:19 | 41.88098 | 23.62973 | 23269 ft | 370 kts | 11° |
| 2026-04-30 11:19 | 41.90511 | 23.64114 | 22890 ft | 367 kts | 12° |
| 2026-04-30 11:19 | 41.92914 | 23.65252 | 22495 ft | 366 kts | 12° |
| 2026-04-30 11:20 | 41.95319 | 23.66389 | 22054 ft | 366 kts | 13° |
| 2026-04-30 11:20 | 41.97715 | 23.67523 | 21695 ft | 364 kts | 13° |
| 2026-04-30 11:20 | 42.00101 | 23.68654 | 21315 ft | 363 kts | 13° |
| 2026-04-30 11:20 | 42.02488 | 23.69785 | 20833 ft | 365 kts | 13° |
| 2026-04-30 11:21 | 42.04893 | 23.70925 | 20325 ft | 368 kts | 13° |
| 2026-04-30 11:21 | 42.07307 | 23.72072 | 19819 ft | 367 kts | 14° |
| 2026-04-30 11:21 | 42.09705 | 23.73214 | 19320 ft | 366 kts | 14° |
| 2026-04-30 11:21 | 42.12108 | 23.74358 | 18799 ft | 365 kts | 14° |
| 2026-04-30 11:22 | 42.14501 | 23.75499 | 18231 ft | 364 kts | 14° |
| 2026-04-30 11:22 | 42.16877 | 23.76634 | 17673 ft | 362 kts | 14° |
| 2026-04-30 11:22 | 42.19250 | 23.77768 | 17085 ft | 361 kts | 14° |
| 2026-04-30 11:22 | 42.21614 | 23.78897 | 16524 ft | 360 kts | 14° |
| 2026-04-30 11:23 | 42.23949 | 23.80013 | 16248 ft | 350 kts | 15° |
| 2026-04-30 11:23 | 42.26191 | 23.81092 | 16185 ft | 336 kts | 14° |
| 2026-04-30 11:23 | 42.29849 | 23.82844 | 16169 ft | 335 kts | 14° |
| 2026-04-30 11:24 | 42.32053 | 23.83897 | 16186 ft | 336 kts | 14° |
| 2026-04-30 11:24 | 42.34243 | 23.84947 | 15985 ft | 336 kts | 14° |
| 2026-04-30 11:24 | 42.36462 | 23.86009 | 15562 ft | 338 kts | 14° |
| 2026-04-30 11:25 | 42.40890 | 23.88137 | 14760 ft | 336 kts | 15° |
| 2026-04-30 11:25 | 42.43084 | 23.89194 | 14368 ft | 333 kts | 15° |
| 2026-04-30 11:25 | 42.47388 | 23.91270 | 13563 ft | 326 kts | 15° |
| 2026-04-30 11:26 | 42.51614 | 23.93310 | 12869 ft | 315 kts | 15° |
| 2026-04-30 11:26 | 42.53652 | 23.94294 | 12628 ft | 307 kts | 15° |
| 2026-04-30 11:26 | 42.55644 | 23.95256 | 12267 ft | 304 kts | 15° |
| 2026-04-30 11:27 | 42.57647 | 23.96210 | 11697 ft | 307 kts | 14° |
| 2026-04-30 11:27 | 42.59741 | 23.96754 | 11057 ft | 308 kts | 2° |
| 2026-04-30 11:27 | 42.61886 | 23.96934 | 10427 ft | 308 kts | 353° |
| 2026-04-30 11:27 | 42.63904 | 23.96123 | 9762 ft | 302 kts | 325° |
| 2026-04-30 11:28 | 42.66423 | 23.91845 | 8431 ft | 292 kts | 286° |
| 2026-04-30 11:28 | 42.66778 | 23.89138 | 7744 ft | 292 kts | 276° |
| 2026-04-30 11:28 | 42.66938 | 23.86379 | 7048 ft | 294 kts | 275° |
| 2026-04-30 11:29 | 42.67084 | 23.83600 | 6408 ft | 293 kts | 277° |
| 2026-04-30 11:29 | 42.67285 | 23.80906 | 6180 ft | 281 kts | 279° |
| 2026-04-30 11:29 | 42.67648 | 23.76088 | 5986 ft | 261 kts | 278° |
| 2026-04-30 11:30 | 42.67916 | 23.71380 | 5839 ft | 242 kts | 277° |
| 2026-04-30 11:30 | 42.68044 | 23.69116 | 5494 ft | 237 kts | 278° |
| 2026-04-30 11:30 | 42.68168 | 23.66947 | 5229 ft | 222 kts | 278° |
| 2026-04-30 11:31 | 42.68281 | 23.64930 | 4911 ft | 207 kts | 279° |
| 2026-04-30 11:31 | 42.68389 | 23.63052 | 4628 ft | 190 kts | 279° |
| 2026-04-30 11:31 | 42.68489 | 23.61334 | 4386 ft | 177 kts | 278° |
| 2026-04-30 11:31 | 42.68584 | 23.59699 | 4139 ft | 170 kts | 278° |
| 2026-04-30 11:32 | 42.68674 | 23.58156 | 3934 ft | 159 kts | 279° |
| 2026-04-30 11:32 | 42.68759 | 23.56721 | 3708 ft | 152 kts | 278° |
| 2026-04-30 11:32 | 42.68842 | 23.55297 | 3433 ft | 151 kts | 278° |
| 2026-04-30 11:33 | 42.69009 | 23.52451 | 2998 ft | 150 kts | 278° |
| 2026-04-30 11:33 | 42.69091 | 23.51061 | 2812 ft | 148 kts | 279° |
| 2026-04-30 11:33 | 42.69176 | 23.49632 | 2641 ft | 151 kts | 278° |
| 2026-04-30 11:33 | 42.69259 | 23.48215 | 2460 ft | 155 kts | 277° |
| 2026-04-30 11:34 | 42.69347 | 23.46732 | 2263 ft | 158 kts | 279° |
| 2026-04-30 11:34 | 42.69435 | 23.45256 | 2056 ft | 157 kts | 278° |
| 2026-04-30 11:34 | 42.69514 | 23.43774 | 1862 ft | 157 kts | 279° |
| 2026-04-30 11:34 | 42.69613 | 23.42379 | 1749 ft | 135 kts | 276° |
| 2026-04-30 11:35 | 42.69654 | 23.41390 | 1754 ft | 75 kts | 273° |
| 2026-04-30 11:35 | 42.69676 | 23.40956 | 1748 ft | 33 kts | 257° |
| 2026-04-30 11:35 | 42.69581 | 23.40648 | 1743 ft | 28 kts | 242° |
| 2026-04-30 11:35 | 42.69568 | 23.40616 | 1749 ft | 0 kts | 242° |
| 2026-04-30 11:36 | 42.69552 | 23.40559 | 1751 ft | 7 kts | 245° |
| 2026-04-30 11:36 | 42.69517 | 23.40504 | 1748 ft | 11 kts | 220° |
| 2026-04-30 11:36 | 42.69484 | 23.40490 | 1730 ft | 7 kts | 183° |
| 2026-04-30 11:36 | 42.69437 | 23.40486 | 1752 ft | 7 kts | 209° |
| 2026-04-30 11:37 | 42.69395 | 23.40454 | 1748 ft | 7 kts | 200° |
| 2026-04-30 11:37 | 42.69341 | 23.40431 | 1750 ft | 14 kts | 193° |
| 2026-04-30 11:37 | 42.69229 | 23.40386 | 1752 ft | 17 kts | 196° |
| 2026-04-30 11:37 | 42.69160 | 23.40380 | 1745 ft | 7 kts | 152° |
| 2026-04-30 11:38 | 42.69119 | 23.40503 | 1752 ft | 21 kts | 107° |
| 2026-04-30 11:38 | 42.69079 | 23.40683 | 1752 ft | 18 kts | 108° |
| 2026-04-30 11:38 | 42.69068 | 23.40848 | 1749 ft | 18 kts | 73° |
| 2026-04-30 11:38 | 42.69105 | 23.41005 | 1751 ft | 17 kts | 71° |
| 2026-04-30 11:39 | 42.69134 | 23.41141 | 1744 ft | 10 kts | 86° |
| 2026-04-30 11:39 | 42.69100 | 23.41211 | 1749 ft | 6 kts | 126° |
| 2026-04-30 11:39 | 42.69100 | 23.41255 | 1749 ft | 4 kts | 70° |
| 2026-04-30 11:39 | 42.69106 | 23.41278 | 1752 ft | 0 kts | 73° |
| 2026-04-30 11:40 | 42.69108 | 23.41287 | 1744 ft | 0 kts | 72° |
| 2026-04-30 11:40 | 42.69108 | 23.41288 | 1745 ft | 0 kts | 72° |